Time;durP1;ratioP1;P1;durP2;ratioP2;P2;SDS_P1;SDS_P2;PMS_P1;PMS_P2;Temp;Humidity;BMP_temperature;BMP_pressure;BME280_temperature;BME280_humidity;BME280_pressure;Samples;Min_cycle;Max_cycle;Signal;HPM_P1;HPM_P2
2023/07/28 00:00:00;;;;;;;;;;;25.10;99.90;;;;;;5134249;27;19904;-75
2023/07/28 00:02:26;;;;;;;;;;;25.10;99.90;;;;;;5134282;27;20271;-75
2023/07/28 00:04:52;;;;;;;;;;;25.20;99.90;;;;;;5134446;27;19907;-74
2023/07/28 00:07:17;;;;;;;;;;;25.10;99.90;;;;;;5133803;27;19937;-74
2023/07/28 00:09:43;;;;;;;;;;;25.10;99.90;;;;;;5134625;27;19910;-75
2023/07/28 00:12:09;;;;;;;;;;;25.10;99.90;;;;;;5134000;27;19904;-75
2023/07/28 00:14:35;;;;;;;;;;;25.10;99.90;;;;;;5132756;27;19903;-75
2023/07/28 00:17:01;;;;;;;;;;;25.10;99.90;;;;;;5134276;27;19908;-75
2023/07/28 00:19:27;;;;;;;;;;;25.10;99.90;;;;;;5132663;27;19904;-75
2023/07/28 00:21:53;;;;;;;;;;;25.00;99.90;;;;;;5134046;27;19939;-74
2023/07/28 00:24:18;;;;;;;;;;;25.00;99.90;;;;;;5134151;27;19986;-74
2023/07/28 00:26:44;;;;;;;;;;;24.80;99.90;;;;;;5133915;27;19960;-74
2023/07/28 00:29:10;;;;;;;;;;;24.70;99.90;;;;;;5134474;27;19908;-74
2023/07/28 00:31:42;;;;;;;;;;;24.70;99.90;;;;;;5132513;28;20002;-75
2023/07/28 00:34:08;;;;;;;;;;;24.50;99.90;;;;;;5133526;28;19962;-74
2023/07/28 00:36:34;;;;;;;;;;;24.50;99.90;;;;;;5133928;28;20286;-74
2023/07/28 00:39:00;;;;;;;;;;;24.50;99.90;;;;;;5132354;28;19945;-74
2023/07/28 00:41:25;;;;;;;;;;;24.50;99.90;;;;;;5132304;28;19947;-75
2023/07/28 00:43:51;;;;;;;;;;;24.50;99.90;;;;;;5132348;28;19931;-74
2023/07/28 00:46:17;;;;;;;;;;;24.50;99.90;;;;;;5133637;27;19998;-75
2023/07/28 00:48:43;;;;;;;;;;;24.50;99.90;;;;;;5134528;27;19914;-74
2023/07/28 00:51:09;;;;;;;;;;;24.50;99.90;;;;;;5133509;27;19903;-74
2023/07/28 00:53:35;;;;;;;;;;;24.50;99.90;;;;;;5133612;27;20292;-75
2023/07/28 00:56:02;;;;;;;;;;;24.50;99.90;;;;;;5132370;28;19904;-74
2023/07/28 00:58:28;;;;;;;;;;;24.60;99.90;;;;;;5133970;27;19975;-74
2023/07/28 01:00:53;;;;;;;;;;;24.50;99.90;;;;;;5132323;28;19911;-76
2023/07/28 01:03:20;;;;;;;;;;;24.60;99.90;;;;;;5132162;28;19903;-75
2023/07/28 01:06:01;;;;;;;;;;;24.60;99.90;;;;;;5133414;27;19911;-75
2023/07/28 01:08:30;;;;;;;;;;;24.70;99.90;;;;;;5133437;28;19912;-76
2023/07/28 01:10:55;;;;;;;;;;;24.80;99.90;;;;;;5132133;28;19952;-75
2023/07/28 01:13:21;;;;;;;;;;;24.70;99.90;;;;;;5132039;28;19960;-75
2023/07/28 01:15:47;;;;;;;;;;;24.70;99.90;;;;;;5133877;27;19929;-75
2023/07/28 01:18:14;;;;;;;;;;;24.60;99.90;;;;;;5132080;28;19907;-75
2023/07/28 01:20:40;;;;;;;;;;;24.60;99.90;;;;;;5133798;27;19910;-74
2023/07/28 01:23:20;;;;;;;;;;;24.60;99.90;;;;;;5131854;28;19968;-75
2023/07/28 01:26:01;;;;;;;;;;;24.50;99.90;;;;;;5133396;27;19990;-75
2023/07/28 01:28:28;;;;;;;;;;;24.40;99.90;;;;;;5133619;27;20355;-74
2023/07/28 01:30:54;;;;;;;;;;;24.30;99.90;;;;;;5133421;27;19946;-75
2023/07/28 01:33:19;;;;;;;;;;;24.30;99.90;;;;;;5133108;28;19951;-75
2023/07/28 01:35:45;;;;;;;;;;;24.20;99.90;;;;;;5133802;27;19911;-75
2023/07/28 01:38:12;;;;;;;;;;;24.10;99.90;;;;;;5136887;27;19956;-74
2023/07/28 01:40:41;;;;;;;;;;;24.10;99.90;;;;;;5137089;27;19990;-75
2023/07/28 01:43:07;;;;;;;;;;;24.10;99.90;;;;;;5135666;27;19903;-74
2023/07/28 01:45:33;;;;;;;;;;;24.00;99.90;;;;;;5137187;27;20255;-75
2023/07/28 01:47:59;;;;;;;;;;;24.00;99.90;;;;;;5135421;27;19916;-75
2023/07/28 01:50:25;;;;;;;;;;;24.00;99.90;;;;;;5137303;27;19911;-75
2023/07/28 01:52:50;;;;;;;;;;;24.00;99.90;;;;;;5136603;27;20342;-75
2023/07/28 01:55:16;;;;;;;;;;;23.90;99.90;;;;;;5136765;27;19973;-75
2023/07/28 01:57:50;;;;;;;;;;;24.00;99.90;;;;;;5136761;27;19918;-75
2023/07/28 02:00:16;;;;;;;;;;;24.00;99.90;;;;;;5137567;27;19910;-74
2023/07/28 02:02:42;;;;;;;;;;;24.00;99.90;;;;;;5135259;27;19907;-73
2023/07/28 02:05:07;;;;;;;;;;;24.00;99.90;;;;;;5136760;27;19910;-75
2023/07/28 02:07:33;;;;;;;;;;;23.90;99.90;;;;;;5136945;27;19911;-74
2023/07/28 02:09:59;;;;;;;;;;;23.90;99.90;;;;;;5135060;27;20263;-76
2023/07/28 02:12:25;;;;;;;;;;;23.90;99.90;;;;;;5136470;27;19903;-75
2023/07/28 02:14:51;;;;;;;;;;;24.00;99.90;;;;;;5136424;27;20320;-75
2023/07/28 02:17:17;;;;;;;;;;;24.10;99.90;;;;;;5136246;27;19910;-74
2023/07/28 02:19:43;;;;;;;;;;;24.20;99.90;;;;;;5136780;27;19970;-74
2023/07/28 02:22:09;;;;;;;;;;;24.20;99.90;;;;;;5134700;27;19903;-75
2023/07/28 02:24:34;;;;;;;;;;;24.20;99.90;;;;;;5136156;27;19903;-74
2023/07/28 02:27:00;;;;;;;;;;;24.10;99.90;;;;;;5135999;27;19907;-74
2023/07/28 02:29:26;;;;;;;;;;;24.10;99.90;;;;;;5136167;27;19930;-74
2023/07/28 02:31:52;;;;;;;;;;;24.10;99.90;;;;;;5136491;27;20338;-74
2023/07/28 02:34:18;;;;;;;;;;;24.00;99.90;;;;;;5135730;27;19964;-75
2023/07/28 02:36:43;;;;;;;;;;;23.90;99.90;;;;;;5135803;27;19911;-74
2023/07/28 02:39:09;;;;;;;;;;;23.90;99.90;;;;;;5135917;27;19911;-74
2023/07/28 02:41:35;;;;;;;;;;;23.90;99.90;;;;;;5136402;27;19911;-75
2023/07/28 02:44:01;;;;;;;;;;;23.90;99.90;;;;;;5135936;27;19911;-75
2023/07/28 02:46:27;;;;;;;;;;;23.90;99.90;;;;;;5135647;27;19910;-74
2023/07/28 02:48:53;;;;;;;;;;;23.90;99.90;;;;;;5135506;27;19910;-75
2023/07/28 02:51:18;;;;;;;;;;;24.00;99.90;;;;;;5134003;27;19914;-75
2023/07/28 02:53:44;;;;;;;;;;;24.00;99.90;;;;;;5135553;27;20036;-74
2023/07/28 02:56:10;;;;;;;;;;;24.00;99.90;;;;;;5135510;27;20005;-75
2023/07/28 02:58:36;;;;;;;;;;;24.00;99.90;;;;;;5134072;27;20267;-75
2023/07/28 03:01:02;;;;;;;;;;;24.00;99.90;;;;;;5135649;27;19914;-75
2023/07/28 03:03:28;;;;;;;;;;;23.90;99.90;;;;;;5135462;27;20003;-75
2023/07/28 03:05:54;;;;;;;;;;;24.00;99.90;;;;;;5133817;27;19950;-74
2023/07/28 03:08:20;;;;;;;;;;;23.90;99.90;;;;;;5135217;27;19911;-75
2023/07/28 03:10:46;;;;;;;;;;;23.90;99.90;;;;;;5135791;27;19984;-74
2023/07/28 03:13:15;;;;;;;;;;;23.90;99.90;;;;;;5135191;27;19908;-75
2023/07/28 03:15:41;;;;;;;;;;;23.90;99.90;;;;;;5133780;27;20393;-74
2023/07/28 03:18:06;;;;;;;;;;;24.00;99.90;;;;;;5135120;27;19903;-76
2023/07/28 03:20:32;;;;;;;;;;;24.00;99.90;;;;;;5135110;27;19911;-74
2023/07/28 03:22:58;;;;;;;;;;;24.00;99.90;;;;;;5134814;27;20008;-74
2023/07/28 03:25:24;;;;;;;;;;;24.00;99.90;;;;;;5134948;27;19904;-75
2023/07/28 03:27:50;;;;;;;;;;;24.10;99.90;;;;;;5134864;27;19912;-75
2023/07/28 03:30:16;;;;;;;;;;;24.00;99.90;;;;;;5135148;27;19904;-74
2023/07/28 03:32:41;;;;;;;;;;;24.00;99.90;;;;;;5134984;27;19911;-74
2023/07/28 03:35:08;;;;;;;;;;;24.00;99.90;;;;;;5134467;27;19915;-74
2023/07/28 03:37:33;;;;;;;;;;;24.00;99.90;;;;;;5134592;27;19914;-74
2023/07/28 03:40:00;;;;;;;;;;;24.10;99.90;;;;;;5134593;27;19904;-74
2023/07/28 03:42:26;;;;;;;;;;;24.10;99.90;;;;;;5133216;27;19903;-74
2023/07/28 03:44:52;;;;;;;;;;;24.10;99.90;;;;;;5134819;27;19946;-74
2023/07/28 03:47:17;;;;;;;;;;;24.10;99.90;;;;;;5134510;27;20003;-75
2023/07/28 03:49:43;;;;;;;;;;;24.10;99.90;;;;;;5134574;27;19907;-74
2023/07/28 03:52:09;;;;;;;;;;;24.10;99.90;;;;;;5134823;27;19903;-74
2023/07/28 03:54:35;;;;;;;;;;;24.00;99.90;;;;;;5134491;27;20359;-74
2023/07/28 03:57:01;;;;;;;;;;;24.00;99.90;;;;;;5134831;27;19950;-74
2023/07/28 03:59:26;;;;;;;;;;;24.00;99.90;;;;;;5132430;27;19903;-74
2023/07/28 04:01:52;;;;;;;;;;;24.00;99.90;;;;;;5134259;27;19926;-74
2023/07/28 04:04:18;;;;;;;;;;;23.90;99.90;;;;;;5134567;27;19929;-75
2023/07/28 04:06:45;;;;;;;;;;;23.90;99.90;;;;;;5133956;27;20313;-74
2023/07/28 04:09:14;;;;;;;;;;;23.90;99.90;;;;;;5134083;27;19907;-75
2023/07/28 04:11:40;;;;;;;;;;;23.80;99.90;;;;;;5134318;27;20003;-75
2023/07/28 04:14:06;;;;;;;;;;;23.90;99.90;;;;;;5134258;27;19947;-75
2023/07/28 04:16:31;;;;;;;;;;;23.90;99.90;;;;;;5134081;27;19903;-74
2023/07/28 04:18:57;;;;;;;;;;;23.90;99.90;;;;;;5132721;27;19958;-74
2023/07/28 04:21:23;;;;;;;;;;;24.00;99.90;;;;;;5134322;27;19903;-74
2023/07/28 04:23:49;;;;;;;;;;;24.20;99.90;;;;;;5133867;27;20312;-74
2023/07/28 04:26:16;;;;;;;;;;;24.20;99.90;;;;;;5134135;27;20399;-73
2023/07/28 04:28:42;;;;;;;;;;;24.40;99.90;;;;;;5133845;27;19923;-75
2023/07/28 04:31:07;;;;;;;;;;;24.50;99.90;;;;;;5132522;27;20275;-74
2023/07/28 04:33:34;;;;;;;;;;;24.60;99.90;;;;;;5133952;27;20023;-75
2023/07/28 04:36:00;;;;;;;;;;;24.70;99.90;;;;;;5133792;27;19903;-74
2023/07/28 04:38:26;;;;;;;;;;;24.80;99.90;;;;;;5133975;27;19910;-75
2023/07/28 04:40:53;;;;;;;;;;;24.90;99.90;;;;;;5134469;27;19907;-74
2023/07/28 04:43:19;;;;;;;;;;;25.00;99.90;;;;;;5133771;27;19937;-75
2023/07/28 04:45:45;;;;;;;;;;;25.20;99.90;;;;;;5133777;27;19907;-75
2023/07/28 04:48:10;;;;;;;;;;;25.30;99.90;;;;;;5133426;27;19911;-75
2023/07/28 04:50:36;;;;;;;;;;;25.30;99.90;;;;;;5133683;27;20006;-74
2023/07/28 04:53:02;;;;;;;;;;;25.40;99.90;;;;;;5133145;28;19907;-74
2023/07/28 04:55:28;;;;;;;;;;;25.40;99.90;;;;;;5133244;27;19904;-75
2023/07/28 04:57:54;;;;;;;;;;;25.30;99.90;;;;;;5133900;27;19903;-74
2023/07/28 05:00:20;;;;;;;;;;;25.40;99.90;;;;;;5133437;27;19904;-74
2023/07/28 05:02:46;;;;;;;;;;;25.60;99.90;;;;;;5134085;27;19911;-74
2023/07/28 05:05:12;;;;;;;;;;;25.80;99.90;;;;;;5133198;28;20419;-75
2023/07/28 05:07:37;;;;;;;;;;;26.10;99.90;;;;;;5133059;27;19912;-75
2023/07/28 05:10:03;;;;;;;;;;;26.00;99.90;;;;;;5131926;27;19904;-74
2023/07/28 05:12:29;;;;;;;;;;;26.10;99.90;;;;;;5135906;27;19904;-74
2023/07/28 05:14:55;;;;;;;;;;;26.40;99.90;;;;;;5137007;27;19903;-74
2023/07/28 05:17:21;;;;;;;;;;;26.90;99.90;;;;;;5137186;27;19904;-75
2023/07/28 05:19:47;;;;;;;;;;;27.10;99.90;;;;;;5136987;27;19903;-74
2023/07/28 05:22:13;;;;;;;;;;;27.20;99.90;;;;;;5136835;27;19990;-74
2023/07/28 05:24:39;;;;;;;;;;;27.70;99.90;;;;;;5137360;27;19986;-75
2023/07/28 05:27:05;;;;;;;;;;;28.40;99.90;;;;;;5136800;27;19911;-75
2023/07/28 05:29:30;;;;;;;;;;;29.10;99.90;;;;;;5137080;27;19903;-75
2023/07/28 05:31:58;;;;;;;;;;;30.10;99.90;;;;;;5137424;27;20290;-75
2023/07/28 05:34:24;;;;;;;;;;;30.00;99.90;;;;;;5136497;27;20059;-75
2023/07/28 05:36:49;;;;;;;;;;;30.70;99.90;;;;;;5137317;27;20352;-75
2023/07/28 05:39:15;;;;;;;;;;;31.10;99.90;;;;;;5136705;27;19903;-75
2023/07/28 05:41:41;;;;;;;;;;;31.10;99.90;;;;;;5137092;27;19942;-75
2023/07/28 05:44:07;;;;;;;;;;;30.60;99.90;;;;;;5136583;27;19914;-74
2023/07/28 05:46:33;;;;;;;;;;;31.20;99.90;;;;;;5136913;27;19926;-75
2023/07/28 05:48:59;;;;;;;;;;;31.80;99.90;;;;;;5136476;27;19908;-75
2023/07/28 05:51:25;;;;;;;;;;;32.30;99.90;;;;;;5136120;27;20029;-75
2023/07/28 05:53:51;;;;;;;;;;;31.50;99.90;;;;;;5135058;27;19903;-75
2023/07/28 05:56:20;;;;;;;;;;;30.90;99.90;;;;;;5136779;27;19960;-74
2023/07/28 05:58:46;;;;;;;;;;;30.70;99.90;;;;;;5134920;27;19946;-74
2023/07/28 06:01:12;;;;;;;;;;;30.70;99.90;;;;;;5135936;27;19907;-75
2023/07/28 06:03:38;;;;;;;;;;;31.20;99.90;;;;;;5136273;27;19909;-75
2023/07/28 06:06:04;;;;;;;;;;;31.80;99.90;;;;;;5136706;27;19904;-74
2023/07/28 06:08:30;;;;;;;;;;;32.70;99.90;;;;;;5135879;27;20355;-75
2023/07/28 06:10:55;;;;;;;;;;;33.10;99.90;;;;;;5134674;27;19903;-75
2023/07/28 06:13:21;;;;;;;;;;;33.40;99.90;;;;;;5134680;27;20418;-75
2023/07/28 06:15:47;;;;;;;;;;;34.20;99.90;;;;;;5136349;27;19961;-75
2023/07/28 06:18:13;;;;;;;;;;;35.20;99.90;;;;;;5135853;27;19907;-75
2023/07/28 06:20:45;;;;;;;;;;;35.90;99.90;;;;;;5135753;27;19971;-75
2023/07/28 06:23:11;;;;;;;;;;;36.70;99.90;;;;;;5134954;27;19903;-75
2023/07/28 06:25:42;;;;;;;;;;;36.60;99.90;;;;;;5136259;27;19903;-74
2023/07/28 06:28:08;;;;;;;;;;;37.40;99.90;;;;;;5135948;27;19918;-75
2023/07/28 06:30:34;;;;;;;;;;;38.20;99.90;;;;;;5136003;27;19904;-75
2023/07/28 06:32:59;;;;;;;;;;;37.70;99.90;;;;;;5135600;27;19915;-75
2023/07/28 06:35:25;;;;;;;;;;;38.10;99.90;;;;;;5135957;27;19912;-75
2023/07/28 06:37:53;;;;;;;;;;;38.10;99.90;;;;;;5135490;27;19907;-75
2023/07/28 06:40:19;;;;;;;;;;;38.50;99.90;;;;;;5135862;27;19903;-75
2023/07/28 06:42:45;;;;;;;;;;;38.90;99.90;;;;;;5135485;27;19915;-75
2023/07/28 06:45:12;;;;;;;;;;;39.40;99.90;;;;;;5135104;27;19915;-75
2023/07/28 06:47:38;;;;;;;;;;;39.50;99.90;;;;;;5135198;27;20013;-74
2023/07/28 06:50:05;;;;;;;;;;;39.00;99.90;;;;;;5135217;27;19980;-74
2023/07/28 06:52:31;;;;;;;;;;;38.60;99.90;;;;;;5134855;27;19952;-74
2023/07/28 06:54:56;;;;;;;;;;;38.50;99.90;;;;;;5135233;27;19903;-74
2023/07/28 06:57:22;;;;;;;;;;;38.80;99.90;;;;;;5135087;27;19907;-74
2023/07/28 06:59:51;;;;;;;;;;;37.70;99.90;;;;;;5135160;27;20382;-74
2023/07/28 07:02:17;;;;;;;;;;;37.40;99.90;;;;;;5135174;27;20348;-74
2023/07/28 07:04:42;;;;;;;;;;;37.10;99.90;;;;;;5135535;27;19914;-74
2023/07/28 07:07:09;;;;;;;;;;;37.20;99.90;;;;;;5134861;27;20019;-74
2023/07/28 07:09:35;;;;;;;;;;;36.60;99.90;;;;;;5135496;27;19903;-74
2023/07/28 07:12:01;;;;;;;;;;;36.50;99.90;;;;;;5134820;27;19956;-74
2023/07/28 07:14:26;;;;;;;;;;;36.80;99.70;;;;;;5135058;27;19907;-74
2023/07/28 07:16:52;;;;;;;;;;;37.60;99.30;;;;;;5134771;27;20259;-74
2023/07/28 07:19:19;;;;;;;;;;;36.60;99.90;;;;;;5134719;27;19903;-74
2023/07/28 07:21:45;;;;;;;;;;;36.50;99.90;;;;;;5134413;27;19910;-74
2023/07/28 07:24:13;;;;;;;;;;;37.10;99.90;;;;;;5133149;27;19903;-74
2023/07/28 07:26:42;;;;;;;;;;;36.90;99.10;;;;;;5132971;27;19911;-74
2023/07/28 07:29:09;;;;;;;;;;;36.80;99.40;;;;;;5132981;27;19920;-74
2023/07/28 07:31:35;;;;;;;;;;;36.20;99.90;;;;;;5133117;27;19931;-74
2023/07/28 07:34:01;;;;;;;;;;;35.60;99.90;;;;;;5133583;27;20264;-74
2023/07/28 07:36:26;;;;;;;;;;;34.90;99.90;;;;;;5134276;27;19903;-74
2023/07/28 07:38:52;;;;;;;;;;;34.90;99.90;;;;;;5134103;27;19952;-74
2023/07/28 07:41:21;;;;;;;;;;;35.00;99.90;;;;;;5134139;27;20236;-74
2023/07/28 07:43:49;;;;;;;;;;;35.10;99.90;;;;;;5132878;27;19919;-74
2023/07/28 07:46:15;;;;;;;;;;;35.50;99.90;;;;;;5134227;27;20351;-74
2023/07/28 07:48:41;;;;;;;;;;;35.30;99.90;;;;;;5132833;27;19911;-74
2023/07/28 07:51:08;;;;;;;;;;;34.30;99.90;;;;;;5134390;27;19904;-73
2023/07/28 07:53:36;;;;;;;;;;;33.50;99.90;;;;;;5132482;27;19994;-73
2023/07/28 07:56:02;;;;;;;;;;;32.90;99.90;;;;;;5134003;27;19910;-74
2023/07/28 07:58:28;;;;;;;;;;;31.70;99.90;;;;;;5133834;27;20307;-74
2023/07/28 08:00:54;;;;;;;;;;;32.10;99.90;;;;;;5134211;27;19915;-74
2023/07/28 08:03:20;;;;;;;;;;;32.70;99.90;;;;;;5134498;27;19934;-74
2023/07/28 08:05:46;;;;;;;;;;;32.40;99.90;;;;;;5133987;27;19903;-73
2023/07/28 08:08:15;;;;;;;;;;;33.00;99.90;;;;;;5133500;27;19911;-74
2023/07/28 08:10:41;;;;;;;;;;;33.60;99.90;;;;;;5133909;27;20300;-74
2023/07/28 08:13:06;;;;;;;;;;;33.90;99.90;;;;;;5133916;27;19934;-74
2023/07/28 08:15:32;;;;;;;;;;;34.40;99.90;;;;;;5133628;27;19903;-74
2023/07/28 08:17:58;;;;;;;;;;;34.80;99.90;;;;;;5134404;27;19904;-74
2023/07/28 08:20:25;;;;;;;;;;;35.00;99.90;;;;;;5133571;27;19908;-74
2023/07/28 08:22:51;;;;;;;;;;;35.30;99.90;;;;;;5133437;27;19991;-73
2023/07/28 08:25:16;;;;;;;;;;;35.10;99.90;;;;;;5133546;27;19942;-74
2023/07/28 08:27:42;;;;;;;;;;;35.10;99.90;;;;;;5133559;27;19973;-74
2023/07/28 08:30:09;;;;;;;;;;;35.00;99.90;;;;;;5133972;27;19903;-74
2023/07/28 08:32:35;;;;;;;;;;;35.00;99.90;;;;;;5133584;27;19903;-74
2023/07/28 08:35:00;;;;;;;;;;;34.80;99.90;;;;;;5133372;27;19938;-74
2023/07/28 08:37:28;;;;;;;;;;;34.80;99.90;;;;;;5133385;27;19908;-73
2023/07/28 08:39:54;;;;;;;;;;;34.40;99.90;;;;;;5133487;27;20386;-75
2023/07/28 08:42:20;;;;;;;;;;;34.90;99.90;;;;;;5133365;27;20043;-74
2023/07/28 08:44:47;;;;;;;;;;;34.80;99.90;;;;;;5133588;27;19950;-73
2023/07/28 08:47:13;;;;;;;;;;;35.30;99.90;;;;;;5137807;27;19914;-74
2023/07/28 08:49:38;;;;;;;;;;;35.00;99.90;;;;;;5137478;27;19908;-74
2023/07/28 08:52:05;;;;;;;;;;;35.10;99.90;;;;;;5137598;27;20347;-74
2023/07/28 08:54:31;;;;;;;;;;;34.80;99.90;;;;;;5136272;27;20360;-75
2023/07/28 08:56:57;;;;;;;;;;;34.60;99.90;;;;;;5137712;27;19944;-74
2023/07/28 08:59:27;;;;;;;;;;;34.40;99.90;;;;;;5137823;27;19913;-74
2023/07/28 09:01:54;;;;;;;;;;;34.40;99.90;;;;;;5137878;27;19915;-74
2023/07/28 09:04:21;;;;;;;;;;;34.20;99.90;;;;;;5137813;27;20411;-74
2023/07/28 09:06:48;;;;;;;;;;;33.80;99.90;;;;;;5136919;27;19904;-74
2023/07/28 09:09:14;;;;;;;;;;;33.50;99.90;;;;;;5137516;27;19998;-74
2023/07/28 09:11:44;;;;;;;;;;;32.60;99.90;;;;;;5137256;27;19994;-74
2023/07/28 09:14:13;;;;;;;;;;;32.50;99.90;;;;;;5137596;27;20305;-75
2023/07/28 09:16:39;;;;;;;;;;;33.00;99.90;;;;;;5137386;27;19903;-75
2023/07/28 09:19:06;;;;;;;;;;;33.30;99.90;;;;;;5135744;27;20013;-75
2023/07/28 09:21:32;;;;;;;;;;;33.20;99.90;;;;;;5136885;27;19908;-75
2023/07/28 09:24:09;;;;;;;;;;;33.10;99.90;;;;;;5135592;27;20039;-75
2023/07/28 09:26:41;;;;;;;;;;;33.30;99.90;;;;;;5137065;27;19903;-75
2023/07/28 09:29:15;;;;;;;;;;;33.40;99.90;;;;;;5136699;27;19912;-75
2023/07/28 09:31:41;;;;;;;;;;;32.80;99.90;;;;;;5137341;27;19903;-74
2023/07/28 09:34:10;;;;;;;;;;;32.90;99.90;;;;;;5135231;27;19923;-75
2023/07/28 09:36:38;;;;;;;;;;;32.80;99.90;;;;;;5135245;27;19929;-75
2023/07/28 09:39:06;;;;;;;;;;;33.00;99.90;;;;;;5136923;27;19952;-75
2023/07/28 09:41:34;;;;;;;;;;;32.70;99.80;;;;;;5135540;27;19907;-76
2023/07/28 09:44:00;;;;;;;;;;;32.20;99.90;;;;;;5135496;27;19984;-75
2023/07/28 09:46:28;;;;;;;;;;;32.50;99.90;;;;;;5136262;27;20056;-73
2023/07/28 09:48:56;;;;;;;;;;;32.50;99.90;;;;;;5136712;27;20143;-74
2023/07/28 09:51:22;;;;;;;;;;;32.20;99.90;;;;;;5136474;27;19903;-75
2023/07/28 09:53:56;;;;;;;;;;;32.20;99.90;;;;;;5136233;27;20014;-74
2023/07/28 09:56:27;;;;;;;;;;;32.30;99.90;;;;;;5136305;27;20315;-75
2023/07/28 09:58:53;;;;;;;;;;;32.30;99.90;;;;;;5135899;27;19957;-75
2023/07/28 10:01:21;;;;;;;;;;;31.90;99.90;;;;;;5136479;27;19908;-75
2023/07/28 10:03:47;;;;;;;;;;;32.10;99.90;;;;;;5136210;27;20347;-74
2023/07/28 10:06:14;;;;;;;;;;;32.30;99.90;;;;;;5136782;27;19939;-75
2023/07/28 10:08:40;;;;;;;;;;;32.10;99.90;;;;;;5136135;27;19915;-75
2023/07/28 10:11:06;;;;;;;;;;;32.10;99.90;;;;;;5134781;27;19986;-74
2023/07/28 10:13:46;;;;;;;;;;;32.20;99.90;;;;;;5136665;27;19904;-74
2023/07/28 10:16:14;;;;;;;;;;;31.60;99.90;;;;;;5136179;27;20235;-75
2023/07/28 10:18:40;;;;;;;;;;;31.70;99.90;;;;;;5135984;27;19903;-75
2023/07/28 10:21:07;;;;;;;;;;;31.70;99.90;;;;;;5135807;27;20266;-75
2023/07/28 10:23:35;;;;;;;;;;;31.80;99.90;;;;;;5135921;27;19915;-74
2023/07/28 10:26:01;;;;;;;;;;;31.70;99.90;;;;;;5135799;27;20363;-74
2023/07/28 10:28:31;;;;;;;;;;;31.90;99.90;;;;;;5136077;27;19988;-74
2023/07/28 10:30:57;;;;;;;;;;;31.70;99.90;;;;;;5135809;27;19952;-74
2023/07/28 10:33:28;;;;;;;;;;;31.70;99.90;;;;;;5135892;27;19966;-74
2023/07/28 10:35:54;;;;;;;;;;;31.90;99.90;;;;;;5135600;27;19925;-74
2023/07/28 10:38:34;;;;;;;;;;;31.50;99.90;;;;;;5135815;27;20001;-74
2023/07/28 10:41:07;;;;;;;;;;;31.30;99.90;;;;;;5135685;27;19903;-74
2023/07/28 10:43:33;;;;;;;;;;;31.60;99.90;;;;;;5135650;27;19909;-74
2023/07/28 10:46:00;;;;;;;;;;;31.40;99.90;;;;;;5136045;27;20069;-74
2023/07/28 10:48:25;;;;;;;;;;;31.10;99.90;;;;;;5135511;27;19912;-74
2023/07/28 10:50:51;;;;;;;;;;;31.30;99.90;;;;;;5136171;27;19903;-74
2023/07/28 10:53:17;;;;;;;;;;;31.40;99.90;;;;;;5135298;27;20211;-74
2023/07/28 10:55:44;;;;;;;;;;;31.30;99.90;;;;;;5135462;27;19908;-74
2023/07/28 10:58:09;;;;;;;;;;;31.30;99.90;;;;;;5135227;27;19910;-74
2023/07/28 11:00:35;;;;;;;;;;;31.40;99.90;;;;;;5135188;27;19990;-75
2023/07/28 11:03:01;;;;;;;;;;;31.30;99.90;;;;;;5135388;27;19910;-75
2023/07/28 11:05:28;;;;;;;;;;;31.30;99.90;;;;;;5135167;27;20313;-75
2023/07/28 11:07:54;;;;;;;;;;;31.40;99.90;;;;;;5134968;27;19993;-75
2023/07/28 11:10:20;;;;;;;;;;;31.70;99.90;;;;;;5135156;27;19907;-75
2023/07/28 11:12:51;;;;;;;;;;;31.70;99.90;;;;;;5134826;27;19910;-75
2023/07/28 11:15:17;;;;;;;;;;;31.70;99.90;;;;;;5133474;27;20367;-75
2023/07/28 11:17:45;;;;;;;;;;;31.70;99.90;;;;;;5135039;27;19956;-75
2023/07/28 11:20:18;;;;;;;;;;;31.30;99.90;;;;;;5134570;27;19903;-74
2023/07/28 11:22:47;;;;;;;;;;;31.40;99.90;;;;;;5134487;27;19915;-74
2023/07/28 11:25:13;;;;;;;;;;;31.20;99.90;;;;;;5134579;27;19903;-75
2023/07/28 11:27:39;;;;;;;;;;;31.40;99.90;;;;;;5134658;27;19911;-75
2023/07/28 11:30:09;;;;;;;;;;;31.30;99.90;;;;;;5134759;27;19910;-74
2023/07/28 11:32:35;;;;;;;;;;;31.20;99.90;;;;;;5134613;27;19926;-74
2023/07/28 11:35:09;;;;;;;;;;;31.30;99.90;;;;;;5134465;27;19915;-74
2023/07/28 11:37:35;;;;;;;;;;;31.40;99.90;;;;;;5134599;27;19907;-74
2023/07/28 11:40:10;;;;;;;;;;;31.20;99.90;;;;;;5134653;27;19972;-75
2023/07/28 11:42:37;;;;;;;;;;;31.10;99.90;;;;;;5134893;27;19907;-74
2023/07/28 11:45:04;;;;;;;;;;;31.30;99.90;;;;;;5134582;27;19904;-74
2023/07/28 11:47:30;;;;;;;;;;;31.30;99.90;;;;;;5134649;27;20010;-74
2023/07/28 11:49:58;;;;;;;;;;;31.50;99.90;;;;;;5134339;27;19914;-75
2023/07/28 11:52:34;;;;;;;;;;;31.30;99.90;;;;;;5132759;27;19931;-74
2023/07/28 11:55:01;;;;;;;;;;;31.20;99.90;;;;;;5134457;27;19908;-75
2023/07/28 11:57:30;;;;;;;;;;;31.20;99.90;;;;;;5134313;27;19903;-75
2023/07/28 11:59:56;;;;;;;;;;;31.10;99.90;;;;;;5134403;27;19958;-74
2023/07/28 12:02:29;;;;;;;;;;;31.30;99.90;;;;;;5134380;27;19989;-74
2023/07/28 12:04:57;;;;;;;;;;;31.30;99.90;;;;;;5134030;27;19909;-74
2023/07/28 12:07:32;;;;;;;;;;;31.20;99.90;;;;;;5132525;27;20016;-74
2023/07/28 12:10:09;;;;;;;;;;;31.10;99.90;;;;;;5132573;27;19907;-74
2023/07/28 12:12:50;;;;;;;;;;;30.70;99.90;;;;;;5133721;27;19903;-73
2023/07/28 12:15:27;;;;;;;;;;;31.00;99.90;;;;;;5132445;27;19998;-74
2023/07/28 12:18:10;;;;;;;;;;;31.10;99.90;;;;;;5133728;27;20417;-75
2023/07/28 12:20:38;;;;;;;;;;;31.30;99.90;;;;;;5133190;27;19958;-75
2023/07/28 12:23:04;;;;;;;;;;;31.50;99.90;;;;;;5133792;27;19908;-74
2023/07/28 12:25:30;;;;;;;;;;;31.70;99.90;;;;;;5133609;27;19903;-75
2023/07/28 12:27:56;;;;;;;;;;;31.30;99.90;;;;;;5133583;27;19943;-75
2023/07/28 12:30:22;;;;;;;;;;;31.60;99.90;;;;;;5134124;27;20047;-74
2023/07/28 12:32:48;;;;;;;;;;;31.70;99.90;;;;;;5133925;27;19941;-74
2023/07/28 12:35:14;;;;;;;;;;;31.60;99.90;;;;;;5134204;27;19919;-74
2023/07/28 12:37:39;;;;;;;;;;;31.60;99.90;;;;;;5132183;28;19938;-74
2023/07/28 12:40:06;;;;;;;;;;;31.60;99.90;;;;;;5134221;27;19903;-74
2023/07/28 12:42:32;;;;;;;;;;;31.80;99.90;;;;;;5134274;27;19942;-74
2023/07/28 12:44:58;;;;;;;;;;;31.50;99.90;;;;;;5133709;27;20387;-74
2023/07/28 12:47:24;;;;;;;;;;;31.30;99.90;;;;;;5132069;28;19911;-74
2023/07/28 12:49:49;;;;;;;;;;;31.40;99.90;;;;;;5132128;28;20271;-74
2023/07/28 12:52:15;;;;;;;;;;;31.40;99.90;;;;;;5132293;28;19925;-74
2023/07/28 12:54:42;;;;;;;;;;;31.50;99.90;;;;;;5134021;27;20362;-74
2023/07/28 12:57:10;;;;;;;;;;;31.70;99.90;;;;;;5133719;27;20016;-74
2023/07/28 12:59:36;;;;;;;;;;;32.10;99.90;;;;;;5133497;28;19929;-74
2023/07/28 13:02:02;;;;;;;;;;;31.80;99.90;;;;;;5133493;27;20386;-74
2023/07/28 13:04:28;;;;;;;;;;;31.50;99.90;;;;;;5132145;28;20424;-74
2023/07/28 13:06:54;;;;;;;;;;;31.00;99.90;;;;;;5133185;27;19907;-72
2023/07/28 13:09:20;;;;;;;;;;;30.70;99.90;;;;;;5133365;27;20022;-74
2023/07/28 13:11:46;;;;;;;;;;;30.50;99.90;;;;;;5131936;28;20379;-74
2023/07/28 13:14:12;;;;;;;;;;;30.80;99.90;;;;;;5133248;27;19903;-74
2023/07/28 13:16:38;;;;;;;;;;;31.20;99.90;;;;;;5131757;28;19911;-74
2023/07/28 13:19:04;;;;;;;;;;;31.30;99.90;;;;;;5133281;28;19910;-73
2023/07/28 13:21:30;;;;;;;;;;;31.40;99.90;;;;;;5133151;27;19904;-73
2023/07/28 13:23:56;;;;;;;;;;;31.30;99.90;;;;;;5133134;27;19903;-74
2023/07/28 13:26:21;;;;;;;;;;;31.30;99.90;;;;;;5133642;28;19903;-74
2023/07/28 13:28:48;;;;;;;;;;;31.30;99.90;;;;;;5133636;27;20010;-74
2023/07/28 13:31:15;;;;;;;;;;;31.40;99.90;;;;;;5133469;27;19910;-75
2023/07/28 13:33:41;;;;;;;;;;;31.50;99.90;;;;;;5134490;27;19919;-75
2023/07/28 13:36:07;;;;;;;;;;;31.10;99.90;;;;;;5137207;27;20248;-75
2023/07/28 13:38:34;;;;;;;;;;;31.20;99.90;;;;;;5137008;27;19948;-75
2023/07/28 13:40:59;;;;;;;;;;;31.00;99.90;;;;;;5137098;27;20420;-74
2023/07/28 13:43:25;;;;;;;;;;;31.10;99.90;;;;;;5136944;27;19904;-74
2023/07/28 13:45:51;;;;;;;;;;;31.40;99.90;;;;;;5137352;27;19990;-76
2023/07/28 13:48:17;;;;;;;;;;;31.40;99.90;;;;;;5136681;27;19912;-75
2023/07/28 13:50:43;;;;;;;;;;;31.30;99.90;;;;;;5136704;27;20298;-75
2023/07/28 13:53:09;;;;;;;;;;;31.20;99.90;;;;;;5136745;27;19947;-73
2023/07/28 13:55:35;;;;;;;;;;;31.00;99.90;;;;;;5137065;27;20385;-75
2023/07/28 13:58:01;;;;;;;;;;;31.20;99.90;;;;;;5137169;27;19903;-75
2023/07/28 14:00:27;;;;;;;;;;;31.30;99.90;;;;;;5136836;27;19959;-73
2023/07/28 14:02:53;;;;;;;;;;;31.30;99.90;;;;;;5137215;27;19907;-75
2023/07/28 14:05:19;;;;;;;;;;;31.60;99.90;;;;;;5137293;27;19943;-75
2023/07/28 14:07:46;;;;;;;;;;;31.90;99.90;;;;;;5136550;27;19917;-75
2023/07/28 14:10:12;;;;;;;;;;;31.70;99.90;;;;;;5136836;27;19904;-73
2023/07/28 14:12:37;;;;;;;;;;;31.80;99.90;;;;;;5136430;27;19948;-73